createdAt,value
2017-05-12T00:00:49.144Z,0
2017-05-12T00:01:59.399Z,0
2017-05-12T00:03:09.663Z,0
2017-05-12T00:04:19.857Z,0
2017-05-12T00:05:30.111Z,0
2017-05-12T00:06:40.059Z,0
2017-05-12T00:07:50.318Z,0
2017-05-12T00:09:00.589Z,0
2017-05-12T00:10:12.793Z,0
2017-05-12T00:11:23.057Z,0
2017-05-12T00:12:33.322Z,0
2017-05-12T00:13:43.595Z,0
2017-05-12T00:14:53.539Z,0
2017-05-12T00:16:03.736Z,0
2017-05-12T00:17:13.991Z,0
2017-05-12T00:18:24.252Z,0
2017-05-12T00:19:34.517Z,0
2017-05-12T00:20:44.464Z,0
2017-05-12T00:21:54.934Z,0
2017-05-12T00:23:05.200Z,0
2017-05-12T00:24:15.471Z,0
2017-05-12T00:25:25.728Z,0
2017-05-12T00:26:35.990Z,0
2017-05-12T00:27:46.598Z,0
2017-05-12T00:28:56.863Z,0
2017-05-12T00:30:07.126Z,0
2017-05-12T00:31:17.067Z,0
2017-05-12T00:32:27.327Z,0
2017-05-12T00:33:37.791Z,0
2017-05-12T00:34:48.052Z,0
2017-05-12T00:35:58.308Z,0
2017-05-12T00:37:08.569Z,0
2017-05-12T00:38:18.526Z,0
2017-05-12T00:39:29.087Z,0
2017-05-12T00:40:39.350Z,0
2017-05-12T00:41:49.626Z,0
2017-05-12T00:42:59.887Z,0
2017-05-12T00:44:09.896Z,0
2017-05-12T00:45:20.411Z,0
2017-05-12T00:46:30.359Z,0
2017-05-12T00:47:40.621Z,0
2017-05-12T00:48:50.881Z,0
2017-05-12T00:50:01.186Z,0
2017-05-12T00:51:11.386Z,0
2017-05-12T00:52:21.644Z,0
2017-05-12T00:53:31.588Z,0
2017-05-12T00:54:41.851Z,0
2017-05-12T00:55:51.799Z,0
2017-05-12T00:57:02.258Z,0
2017-05-12T00:58:11.885Z,0
2017-05-12T00:59:22.151Z,0
2017-05-12T01:00:32.407Z,0
2017-05-12T01:01:42.674Z,0
2017-05-12T01:02:55.192Z,0
2017-05-12T01:04:05.461Z,0
2017-05-12T01:05:15.726Z,0
2017-05-12T01:06:25.361Z,0
2017-05-12T01:07:35.622Z,0
2017-05-12T01:08:45.875Z,0
2017-05-12T01:09:56.147Z,0
2017-05-12T01:11:06.409Z,0
2017-05-12T01:12:16.669Z,0
2017-05-12T01:13:26.618Z,0
2017-05-12T01:14:37.135Z,0
2017-05-12T01:15:47.394Z,0
2017-05-12T01:16:57.337Z,0
2017-05-12T01:18:06.979Z,0
2017-05-12T01:19:17.239Z,0
2017-05-12T01:20:27.801Z,0
2017-05-12T01:21:37.754Z,0
2017-05-12T01:22:48.010Z,0
2017-05-12T01:23:58.269Z,0
2017-05-12T01:25:08.531Z,0
2017-05-12T01:26:19.050Z,0
2017-05-12T01:27:29.309Z,0
2017-05-12T01:28:39.577Z,0
2017-05-12T01:29:49.533Z,0
2017-05-12T01:30:59.793Z,0
2017-05-12T01:32:12.368Z,0
2017-05-12T01:33:22.628Z,0
2017-05-12T01:34:32.886Z,0
2017-05-12T01:35:43.143Z,0
2017-05-12T01:36:53.403Z,0
2017-05-12T01:38:03.864Z,0
2017-05-12T01:39:14.128Z,0
2017-05-12T01:40:24.385Z,0
2017-05-12T01:41:34.326Z,0
2017-05-12T01:42:44.587Z,0
2017-05-12T01:43:55.150Z,0
2017-05-12T01:45:05.097Z,0
2017-05-12T01:46:15.357Z,0
2017-05-12T01:47:25.628Z,0
2017-05-12T01:48:35.891Z,0
2017-05-12T01:49:46.399Z,0
2017-05-12T01:50:56.667Z,0
2017-05-12T01:52:06.926Z,0
2017-05-12T01:53:17.194Z,0
2017-05-12T01:54:27.143Z,0
2017-05-12T01:55:37.390Z,0
2017-05-12T01:56:47.652Z,0
2017-05-12T01:57:57.922Z,0
2017-05-12T01:59:08.186Z,0
2017-05-12T02:00:17.818Z,0
2017-05-12T02:01:28.269Z,0
2017-05-12T02:02:38.550Z,0
2017-05-12T02:03:48.820Z,0
2017-05-12T02:04:59.083Z,0
2017-05-12T02:06:09.345Z,0
2017-05-12T02:07:19.906Z,0
2017-05-12T02:08:29.870Z,0
2017-05-12T02:09:40.131Z,0
2017-05-12T02:10:50.390Z,0
2017-05-12T02:12:00.651Z,0
2017-05-12T02:13:10.488Z,0
2017-05-12T02:14:20.808Z,0
2017-05-12T02:15:31.070Z,0
2017-05-12T02:16:41.331Z,0
2017-05-12T02:17:51.272Z,0
2017-05-12T02:19:01.832Z,0
2017-05-12T02:20:11.773Z,0
2017-05-12T02:21:22.029Z,0
2017-05-12T02:22:31.980Z,0
2017-05-12T02:23:42.241Z,0
2017-05-12T02:24:52.708Z,0
2017-05-12T02:26:02.968Z,0
2017-05-12T02:27:12.602Z,0
2017-05-12T02:28:22.856Z,0
2017-05-12T02:29:33.116Z,0
2017-05-12T02:30:43.677Z,0
2017-05-12T02:31:53.937Z,0
2017-05-12T02:33:03.894Z,0
2017-05-12T02:34:13.524Z,0
2017-05-12T02:35:23.792Z,0
2017-05-12T02:36:34.353Z,0
2017-05-12T02:37:44.617Z,5
2017-05-12T02:38:54.873Z,5
2017-05-12T02:40:05.135Z,5
2017-05-12T02:41:15.112Z,5
2017-05-12T02:42:25.715Z,5
2017-05-12T02:43:35.972Z,5
2017-05-12T02:44:46.227Z,5
2017-05-12T02:45:56.486Z,5
2017-05-12T02:47:06.119Z,5
2017-05-12T02:48:16.414Z,5
2017-05-12T02:49:26.366Z,5
2017-05-12T02:50:36.627Z,5
2017-05-12T02:51:46.889Z,5
2017-05-12T02:52:57.149Z,5
2017-05-12T02:54:07.717Z,5
2017-05-12T02:55:17.973Z,5
2017-05-12T02:56:28.232Z,5
2017-05-12T02:57:38.510Z,5
2017-05-12T02:58:48.778Z,5
2017-05-12T02:59:59.293Z,5
2017-05-12T03:01:08.937Z,10
2017-05-12T03:02:19.248Z,10
2017-05-12T03:03:28.879Z,10
2017-05-12T03:04:39.193Z,10
2017-05-12T03:05:51.755Z,10
2017-05-12T03:07:01.701Z,10
2017-05-12T03:08:11.958Z,10
2017-05-12T03:09:22.230Z,10
2017-05-12T03:10:32.491Z,15
2017-05-12T03:11:43.000Z,15
2017-05-12T03:12:53.290Z,15
2017-05-12T03:14:03.548Z,15
2017-05-12T03:15:13.811Z,15
2017-05-12T03:16:24.072Z,15
2017-05-12T03:17:34.536Z,15
2017-05-12T03:18:44.798Z,15
2017-05-12T03:19:54.751Z,15
2017-05-12T03:21:05.021Z,15
2017-05-12T03:22:15.288Z,15
2017-05-12T03:23:25.849Z,15
2017-05-12T03:24:35.800Z,20
2017-05-12T03:25:46.060Z,20
2017-05-12T03:26:56.319Z,20
2017-05-12T03:28:06.584Z,20
2017-05-12T03:29:16.788Z,20
2017-05-12T03:30:27.049Z,20
2017-05-12T03:31:37.306Z,25
2017-05-12T03:32:47.257Z,25
2017-05-12T03:33:57.553Z,25
2017-05-12T03:35:08.122Z,25
2017-05-12T03:36:18.396Z,25
2017-05-12T03:37:28.335Z,25
2017-05-12T03:38:38.593Z,30
2017-05-12T03:39:48.857Z,30
2017-05-12T03:40:59.421Z,30
2017-05-12T03:42:09.049Z,30
2017-05-12T03:43:18.722Z,30
2017-05-12T03:44:28.680Z,35
2017-05-12T03:45:38.984Z,35
2017-05-12T03:46:49.556Z,35
2017-05-12T03:47:59.509Z,35
2017-05-12T03:49:09.140Z,40
2017-05-12T03:50:19.396Z,40
2017-05-12T03:51:29.664Z,45
2017-05-12T03:52:40.181Z,50
2017-05-12T03:53:50.445Z,55
2017-05-12T03:55:00.706Z,55
2017-05-12T03:56:10.660Z,55
2017-05-12T03:57:20.604Z,55
2017-05-12T03:58:30.859Z,55
2017-05-12T03:59:41.122Z,60
2017-05-12T04:00:51.071Z,60
2017-05-12T04:02:01.347Z,60
2017-05-12T04:03:11.608Z,60
2017-05-12T04:04:22.165Z,65
2017-05-12T04:05:31.799Z,65
2017-05-12T04:06:42.064Z,65
2017-05-12T04:07:52.341Z,70
2017-05-12T04:09:02.609Z,65
2017-05-12T04:10:15.072Z,70
2017-05-12T04:11:25.327Z,75
2017-05-12T04:12:35.272Z,80
2017-05-12T04:13:45.539Z,80
2017-05-12T04:14:55.839Z,80
2017-05-12T04:16:06.399Z,80
2017-05-12T04:17:16.672Z,85
2017-05-12T04:18:26.934Z,90
2017-05-12T04:19:36.881Z,95
2017-05-12T04:20:47.142Z,100
2017-05-12T04:21:57.687Z,105
2017-05-12T04:23:07.948Z,105
2017-05-12T04:24:17.268Z,105
2017-05-12T04:25:27.564Z,105
2017-05-12T04:26:37.507Z,105
2017-05-12T04:27:49.705Z,105
2017-05-12T04:28:59.973Z,105
2017-05-12T04:30:09.936Z,105
2017-05-12T04:31:20.208Z,110
2017-05-12T04:32:30.151Z,110
2017-05-12T04:33:40.403Z,110
2017-05-12T04:34:50.666Z,115
2017-05-12T04:36:00.937Z,120
2017-05-12T04:37:10.891Z,125
2017-05-12T04:38:21.153Z,135
2017-05-12T04:39:31.716Z,140
2017-05-12T04:40:41.975Z,145
2017-05-12T04:41:51.922Z,145
2017-05-12T04:43:02.178Z,145
2017-05-12T04:44:12.447Z,145
2017-05-12T04:45:22.644Z,145
2017-05-12T04:46:32.915Z,145
2017-05-12T04:47:42.870Z,145
2017-05-12T04:48:53.131Z,145
2017-05-12T04:50:03.388Z,140
2017-05-12T04:51:13.319Z,140
2017-05-12T04:52:23.579Z,140
2017-05-12T04:53:33.210Z,135
2017-05-12T04:54:43.478Z,140
2017-05-12T04:55:53.740Z,140
2017-05-12T04:57:03.944Z,135
2017-05-12T04:58:14.206Z,135
2017-05-12T04:59:24.464Z,130
2017-05-12T05:00:34.761Z,130
2017-05-12T05:01:45.024Z,130
2017-05-12T05:02:55.183Z,135
2017-05-12T05:04:05.455Z,140
2017-05-12T05:05:15.709Z,140
2017-05-12T05:06:25.966Z,145
2017-05-12T05:07:35.600Z,150
2017-05-12T05:08:46.172Z,160
2017-05-12T05:09:56.430Z,160
2017-05-12T05:11:06.688Z,165
2017-05-12T05:12:16.319Z,170
2017-05-12T05:13:26.273Z,170
2017-05-12T05:14:36.482Z,175
2017-05-12T05:15:46.745Z,170
2017-05-12T05:16:56.694Z,175
2017-05-12T05:18:06.670Z,175
2017-05-12T05:19:16.944Z,170
2017-05-12T05:20:27.206Z,170
2017-05-12T05:21:37.159Z,170
2017-05-12T05:22:47.426Z,165
2017-05-12T05:23:57.897Z,165
2017-05-12T05:25:08.393Z,160
2017-05-12T05:26:18.963Z,160
2017-05-12T05:27:29.228Z,155
2017-05-12T05:28:39.480Z,155
2017-05-12T05:29:49.737Z,155
2017-05-12T05:30:59.994Z,150
2017-05-12T05:32:10.613Z,150
2017-05-12T05:33:20.560Z,145
2017-05-12T05:34:30.828Z,150
2017-05-12T05:35:41.091Z,150
2017-05-12T05:36:51.039Z,160
2017-05-12T05:38:01.522Z,170
2017-05-12T05:39:11.786Z,180
2017-05-12T05:40:21.733Z,185
2017-05-12T05:41:31.992Z,185
2017-05-12T05:42:42.252Z,180
2017-05-12T05:43:52.456Z,185
2017-05-12T05:45:02.718Z,200
2017-05-12T05:46:12.981Z,195
2017-05-12T05:47:22.621Z,210
2017-05-12T05:48:32.884Z,215
2017-05-12T05:49:43.139Z,215
2017-05-12T05:50:53.398Z,220
2017-05-12T05:52:03.352Z,210
2017-05-12T05:53:13.299Z,200
2017-05-12T05:54:23.246Z,210
2017-05-12T05:55:33.754Z,200
2017-05-12T05:56:43.735Z,195
2017-05-12T05:57:53.994Z,200
2017-05-12T05:59:03.936Z,200
2017-05-12T06:00:14.249Z,210
2017-05-12T06:01:24.464Z,215
2017-05-12T06:02:34.481Z,215
2017-05-12T06:03:44.439Z,210
2017-05-12T06:04:54.697Z,215
2017-05-12T06:06:04.964Z,225
2017-05-12T06:07:15.480Z,235
2017-05-12T06:08:25.751Z,250
2017-05-12T06:09:35.693Z,275
2017-05-12T06:10:45.650Z,300
2017-05-12T06:11:55.598Z,315
2017-05-12T06:13:06.109Z,300
2017-05-12T06:14:16.103Z,265
2017-05-12T06:15:26.380Z,245
2017-05-12T06:16:36.332Z,230
2017-05-12T06:17:46.602Z,230
2017-05-12T06:18:59.179Z,225
2017-05-12T06:20:09.131Z,220
2017-05-12T06:21:19.389Z,215
2017-05-12T06:22:29.649Z,215
2017-05-12T06:23:39.616Z,220
2017-05-12T06:24:49.873Z,220
2017-05-12T06:26:00.140Z,225
2017-05-12T06:27:10.135Z,240
2017-05-12T06:28:20.399Z,230
2017-05-12T06:29:30.346Z,235
2017-05-12T06:30:40.804Z,235
2017-05-12T06:31:51.070Z,235
2017-05-12T06:33:01.345Z,240
2017-05-12T06:34:11.607Z,235
2017-05-12T06:35:20.926Z,235
2017-05-12T06:36:31.492Z,235
2017-05-12T06:37:41.753Z,235
2017-05-12T06:38:52.020Z,240
2017-05-12T06:40:01.971Z,250
2017-05-12T06:41:11.926Z,255
2017-05-12T06:42:22.125Z,260
2017-05-12T06:43:32.396Z,255
2017-05-12T06:44:42.658Z,260
2017-05-12T06:45:52.601Z,260
2017-05-12T06:47:02.553Z,250
2017-05-12T06:48:12.811Z,250
2017-05-12T06:49:23.076Z,245
2017-05-12T06:50:33.041Z,250
2017-05-12T06:51:43.303Z,245
2017-05-12T06:52:53.565Z,240
2017-05-12T06:54:04.083Z,240
2017-05-12T06:55:14.348Z,235
2017-05-12T06:56:24.298Z,230
2017-05-12T06:57:34.316Z,230
2017-05-12T06:58:44.584Z,225
2017-05-12T06:59:55.151Z,215
2017-05-12T07:01:05.421Z,210
2017-05-12T07:02:15.372Z,205
2017-05-12T07:03:25.330Z,205
2017-05-12T07:04:35.592Z,205
2017-05-12T07:05:46.164Z,205
2017-05-12T07:06:56.437Z,200
2017-05-12T07:08:06.394Z,200
2017-05-12T07:09:16.342Z,200
2017-05-12T07:10:26.292Z,205
2017-05-12T07:11:36.809Z,205
2017-05-12T07:12:47.092Z,205
2017-05-12T07:13:57.045Z,205
2017-05-12T07:15:07.316Z,205
2017-05-12T07:16:17.260Z,205
2017-05-12T07:17:31.046Z,205
2017-05-12T07:18:41.357Z,205
2017-05-12T07:19:51.619Z,205
2017-05-12T07:21:01.563Z,205
2017-05-12T07:22:11.836Z,205
2017-05-12T07:23:22.130Z,205
2017-05-12T07:24:32.392Z,210
2017-05-12T07:25:42.648Z,210
2017-05-12T07:26:52.911Z,210
2017-05-12T07:28:02.545Z,210
2017-05-12T07:29:12.744Z,210
2017-05-12T07:30:22.692Z,210
2017-05-12T07:31:32.954Z,210
2017-05-12T07:32:43.226Z,210
2017-05-12T07:33:53.481Z,210
2017-05-12T07:35:04.051Z,210
2017-05-12T07:36:14.003Z,210
2017-05-12T07:37:23.964Z,215
2017-05-12T07:38:33.912Z,215
2017-05-12T07:39:43.860Z,220
2017-05-12T07:40:54.375Z,220
2017-05-12T07:42:04.642Z,215
2017-05-12T07:43:14.904Z,215
2017-05-12T07:44:24.861Z,215
2017-05-12T07:45:35.166Z,215
2017-05-12T07:46:45.681Z,220
2017-05-12T07:47:55.630Z,220
2017-05-12T07:49:05.580Z,220
2017-05-12T07:50:15.845Z,220
2017-05-12T07:51:25.793Z,220
2017-05-12T07:52:36.039Z,220
2017-05-12T07:53:46.300Z,220
2017-05-12T07:54:56.561Z,220
2017-05-12T07:56:06.512Z,220
2017-05-12T07:57:16.472Z,225
2017-05-12T07:58:26.414Z,225
2017-05-12T07:59:36.679Z,225
2017-05-12T08:00:46.624Z,225
2017-05-12T08:01:56.880Z,225
2017-05-12T08:03:06.827Z,230
2017-05-12T08:04:19.477Z,230
2017-05-12T08:05:29.435Z,230
2017-05-12T08:06:39.711Z,230
2017-05-12T08:07:49.972Z,235
2017-05-12T08:08:59.926Z,235
2017-05-12T08:10:10.441Z,235
2017-05-12T08:11:20.710Z,235
2017-05-12T08:12:30.653Z,235
2017-05-12T08:13:40.918Z,235
2017-05-12T08:14:51.184Z,235
2017-05-12T08:16:01.750Z,235
2017-05-12T08:17:12.024Z,235
2017-05-12T08:18:21.704Z,235
2017-05-12T08:19:31.964Z,235
2017-05-12T08:20:41.921Z,235
2017-05-12T08:21:52.437Z,240
2017-05-12T08:23:02.705Z,240
2017-05-12T08:24:12.971Z,240
2017-05-12T08:25:22.923Z,240
2017-05-12T08:26:32.562Z,240
2017-05-12T08:27:43.074Z,240
2017-05-12T08:28:53.353Z,240
2017-05-12T08:30:02.668Z,245
2017-05-12T08:31:12.620Z,245
2017-05-12T08:32:22.879Z,250
2017-05-12T08:33:33.339Z,250
2017-05-12T08:34:43.661Z,255
2017-05-12T08:35:53.608Z,260
2017-05-12T08:37:03.562Z,250
2017-05-12T08:38:13.508Z,260
2017-05-12T08:39:24.070Z,235
2017-05-12T08:40:34.015Z,240
2017-05-12T08:41:44.283Z,265
2017-05-12T08:42:54.548Z,275
2017-05-12T08:44:04.519Z,295
2017-05-12T08:45:15.081Z,295
2017-05-12T08:46:25.026Z,305
2017-05-12T08:47:35.288Z,320
2017-05-12T08:48:45.237Z,325
2017-05-12T08:49:55.500Z,310
2017-05-12T08:51:05.386Z,300
2017-05-12T08:52:15.658Z,310
2017-05-12T08:53:24.984Z,300
2017-05-12T08:54:35.250Z,300
2017-05-12T08:55:45.204Z,320
2017-05-12T08:56:55.849Z,340
2017-05-12T08:58:06.113Z,380
2017-05-12T08:59:15.742Z,385
2017-05-12T09:00:25.385Z,385
2017-05-12T09:01:35.663Z,395
2017-05-12T09:02:45.827Z,380
2017-05-12T09:03:56.093Z,415
2017-05-12T09:05:06.051Z,490
2017-05-12T09:06:16.011Z,535
2017-05-12T09:07:25.961Z,545
2017-05-12T09:08:36.470Z,550
2017-05-12T09:09:46.420Z,570
2017-05-12T09:10:56.695Z,570
2017-05-12T09:12:06.646Z,580
2017-05-12T09:13:16.911Z,550
2017-05-12T09:14:27.165Z,565
2017-05-12T09:15:37.433Z,570
2017-05-12T09:16:47.381Z,570
2017-05-12T09:17:57.639Z,550
2017-05-12T09:19:07.899Z,560
2017-05-12T09:20:17.789Z,550
2017-05-12T09:21:28.054Z,565
2017-05-12T09:22:38.012Z,585
2017-05-12T09:23:48.278Z,615
2017-05-12T09:24:58.547Z,615
2017-05-12T09:26:08.804Z,630
2017-05-12T09:27:19.077Z,625
2017-05-12T09:28:29.342Z,630
2017-05-12T09:29:39.601Z,645
2017-05-12T09:30:49.870Z,655
2017-05-12T09:32:00.393Z,665
2017-05-12T09:33:10.391Z,660
2017-05-12T09:34:20.347Z,650
2017-05-12T09:35:30.617Z,640
2017-05-12T09:36:40.881Z,655
2017-05-12T09:37:51.500Z,670
2017-05-12T09:39:01.776Z,685
2017-05-12T09:40:12.047Z,720
2017-05-12T09:41:22.318Z,685
2017-05-12T09:42:32.583Z,690
2017-05-12T09:43:43.190Z,660
2017-05-12T09:44:53.457Z,655
2017-05-12T09:46:03.721Z,630
2017-05-12T09:47:13.682Z,605
2017-05-12T09:48:23.964Z,600
2017-05-12T09:49:34.216Z,590
2017-05-12T09:50:44.202Z,605
2017-05-12T09:51:54.148Z,620
2017-05-12T09:53:04.094Z,635
2017-05-12T09:54:14.052Z,635
2017-05-12T09:55:26.784Z,630
2017-05-12T09:56:36.772Z,635
2017-05-12T09:57:47.046Z,645
2017-05-12T09:58:57.316Z,635
2017-05-12T10:00:07.577Z,630
2017-05-12T10:01:17.731Z,655
2017-05-12T10:02:27.686Z,690
2017-05-12T10:03:37.328Z,675
2017-05-12T10:04:47.622Z,660
2017-05-12T10:05:57.888Z,645
2017-05-12T10:07:07.780Z,655
2017-05-12T10:08:17.732Z,685
2017-05-12T10:09:28.003Z,715
2017-05-12T10:10:38.277Z,735
2017-05-12T10:11:48.232Z,760
2017-05-12T10:12:58.750Z,805
2017-05-12T10:14:09.016Z,780
2017-05-12T10:15:19.330Z,780
2017-05-12T10:16:29.284Z,790
2017-05-12T10:17:39.548Z,800
2017-05-12T10:18:50.161Z,800
2017-05-12T10:20:00.108Z,805
2017-05-12T10:21:10.405Z,805
2017-05-12T10:22:20.356Z,805
2017-05-12T10:23:30.311Z,810
2017-05-12T10:24:40.875Z,825
2017-05-12T10:25:50.842Z,835
2017-05-12T10:27:01.110Z,820
2017-05-12T10:28:11.374Z,810
2017-05-12T10:29:21.331Z,810
2017-05-12T10:30:31.901Z,810
2017-05-12T10:31:42.171Z,805
2017-05-12T10:32:51.810Z,810
2017-05-12T10:34:02.077Z,800
2017-05-12T10:35:12.043Z,795
2017-05-12T10:36:22.511Z,800
2017-05-12T10:37:32.785Z,815
2017-05-12T10:38:42.799Z,830
2017-05-12T10:39:53.078Z,860
2017-05-12T10:41:03.350Z,885
2017-05-12T10:42:13.812Z,885
2017-05-12T10:43:23.771Z,925
2017-05-12T10:44:34.031Z,905
2017-05-12T10:45:44.294Z,880
2017-05-12T10:46:53.942Z,875
2017-05-12T10:48:04.565Z,845
2017-05-12T10:49:14.835Z,810
2017-05-12T10:50:25.107Z,800
2017-05-12T10:51:35.373Z,765
2017-05-12T10:52:45.652Z,755
2017-05-12T10:53:56.231Z,740
2017-05-12T10:55:06.197Z,735
2017-05-12T10:56:16.468Z,705
2017-05-12T10:57:26.422Z,670
2017-05-12T10:58:36.692Z,640
2017-05-12T10:59:46.680Z,620
2017-05-12T11:00:56.953Z,595
2017-05-12T11:02:07.222Z,580
2017-05-12T11:03:17.177Z,595
2017-05-12T11:04:27.451Z,610
2017-05-12T11:05:38.016Z,650
2017-05-12T11:06:48.282Z,695
2017-05-12T11:07:58.550Z,745
2017-05-12T11:09:08.816Z,805
2017-05-12T11:10:18.453Z,775
2017-05-12T11:11:28.923Z,755
2017-05-12T11:12:39.192Z,720
2017-05-12T11:13:49.481Z,680
2017-05-12T11:14:59.758Z,645
2017-05-12T11:16:09.714Z,595
2017-05-12T11:17:19.967Z,565
2017-05-12T11:18:29.614Z,600
2017-05-12T11:19:39.885Z,605
2017-05-12T11:20:50.150Z,530
2017-05-12T11:22:00.451Z,520
2017-05-12T11:23:14.193Z,525
2017-05-12T11:24:24.150Z,560
2017-05-12T11:25:34.107Z,605
2017-05-12T11:26:44.059Z,695
2017-05-12T11:27:54.332Z,675
2017-05-12T11:29:04.951Z,675
2017-05-12T11:30:14.914Z,665
2017-05-12T11:31:25.181Z,625
2017-05-12T11:32:35.149Z,615
2017-05-12T11:33:45.103Z,640
2017-05-12T11:34:55.630Z,645
2017-05-12T11:36:05.901Z,660
2017-05-12T11:37:15.857Z,660
2017-05-12T11:38:26.138Z,780
2017-05-12T11:39:36.409Z,1605
2017-05-12T11:40:46.668Z,990
2017-05-12T11:41:56.968Z,820
2017-05-12T11:43:07.241Z,735
2017-05-12T11:44:17.507Z,740
2017-05-12T11:45:27.457Z,800
2017-05-12T11:46:37.721Z,695
2017-05-12T11:47:48.029Z,685
2017-05-12T11:48:57.982Z,680
2017-05-12T11:50:08.263Z,685
2017-05-12T11:51:18.218Z,710
2017-05-12T11:52:28.417Z,740
2017-05-12T11:53:38.688Z,850
2017-05-12T11:54:48.951Z,870
2017-05-12T11:55:59.220Z,1115
2017-05-12T11:57:09.496Z,1060
2017-05-12T11:58:19.795Z,1045
2017-05-12T11:59:29.770Z,1125
2017-05-12T12:00:39.724Z,1370
2017-05-12T12:01:49.992Z,3205
2017-05-12T12:03:00.263Z,2045
2017-05-12T12:04:10.466Z,2440
2017-05-12T12:05:20.739Z,2075
2017-05-12T12:06:30.693Z,1715
2017-05-12T12:07:40.970Z,3235
2017-05-12T12:08:51.241Z,2120
2017-05-12T12:10:01.186Z,1675
2017-05-12T12:11:11.458Z,1735
2017-05-12T12:12:21.734Z,1185
2017-05-12T12:13:32.006Z,1300
2017-05-12T12:14:41.977Z,1030
2017-05-12T12:15:52.498Z,3435
2017-05-12T12:17:02.778Z,3120
2017-05-12T12:18:13.055Z,3445
2017-05-12T12:19:23.007Z,3375
2017-05-12T12:20:33.286Z,2180
2017-05-12T12:21:43.818Z,1650
2017-05-12T12:22:54.101Z,980
2017-05-12T12:24:04.379Z,1455
2017-05-12T12:25:14.657Z,1610
2017-05-12T12:26:24.934Z,1280
2017-05-12T12:27:35.559Z,3090
2017-05-12T12:28:45.522Z,1500
2017-05-12T12:29:55.801Z,1005
2017-05-12T12:31:06.074Z,1720
2017-05-12T12:32:16.039Z,1070
2017-05-12T12:33:28.567Z,2425
2017-05-12T12:34:38.841Z,2265
2017-05-12T12:35:49.162Z,2895
2017-05-12T12:36:59.131Z,1340
2017-05-12T12:38:09.408Z,1545
2017-05-12T12:39:19.994Z,1825
2017-05-12T12:40:29.647Z,1250
2017-05-12T12:41:39.608Z,1100
2017-05-12T12:42:49.571Z,935
2017-05-12T12:43:59.852Z,885
2017-05-12T12:45:10.076Z,870
2017-05-12T12:46:20.041Z,1130
2017-05-12T12:47:30.319Z,1265
2017-05-12T12:48:40.597Z,1190
2017-05-12T12:49:50.563Z,1015
2017-05-12T12:51:03.041Z,1265
2017-05-12T12:52:13.313Z,1100
2017-05-12T12:53:23.626Z,1315
2017-05-12T12:54:33.899Z,3105
2017-05-12T12:55:43.873Z,1810
2017-05-12T12:56:54.454Z,3820
2017-05-12T12:58:04.776Z,3750
2017-05-12T12:59:15.054Z,3190
2017-05-12T13:00:25.061Z,2580
2017-05-12T13:01:35.337Z,2630
2017-05-12T13:02:45.549Z,2485
2017-05-12T13:03:55.518Z,1725
2017-05-12T13:05:05.792Z,1735
2017-05-12T13:06:15.755Z,1585
2017-05-12T13:07:25.728Z,3645
2017-05-12T13:08:36.358Z,1825
2017-05-12T13:09:46.678Z,1500
2017-05-12T13:10:56.960Z,1485
2017-05-12T13:12:06.928Z,3905
2017-05-12T13:13:17.209Z,3020
2017-05-12T13:14:27.734Z,3270
2017-05-12T13:15:38.018Z,2750
2017-05-12T13:16:47.983Z,3000
2017-05-12T13:17:58.264Z,3755
2017-05-12T13:19:08.546Z,3565
2017-05-12T13:20:18.775Z,3690
2017-05-12T13:21:28.739Z,1355
2017-05-12T13:22:39.027Z,2815
2017-05-12T13:23:48.989Z,1260
2017-05-12T13:24:58.958Z,1390
2017-05-12T13:26:11.442Z,1570
2017-05-12T13:27:21.726Z,1175
2017-05-12T13:28:32.016Z,1265
2017-05-12T13:29:41.983Z,1080
2017-05-12T13:30:52.262Z,1005
2017-05-12T13:32:02.848Z,955
2017-05-12T13:33:12.811Z,895
2017-05-12T13:34:22.469Z,825
2017-05-12T13:35:32.752Z,795
2017-05-12T13:36:43.030Z,785
2017-05-12T13:37:53.504Z,870
2017-05-12T13:39:03.779Z,885
2017-05-12T13:40:14.055Z,900
2017-05-12T13:41:24.020Z,1000
2017-05-12T13:42:34.289Z,990
2017-05-12T13:43:44.865Z,925
2017-05-12T13:44:55.145Z,885
2017-05-12T13:46:05.426Z,890
2017-05-12T13:47:15.701Z,975
2017-05-12T13:48:25.662Z,1310
2017-05-12T13:49:36.186Z,2310
2017-05-12T13:50:46.161Z,1465
2017-05-12T13:51:56.439Z,1570
2017-05-12T13:53:06.712Z,1450
2017-05-12T13:54:16.996Z,1545
2017-05-12T13:55:27.308Z,1385
2017-05-12T13:56:37.270Z,1355
2017-05-12T13:57:47.550Z,1365
2017-05-12T13:58:57.833Z,1945
2017-05-12T14:00:07.482Z,1450
2017-05-12T14:01:17.437Z,2110
2017-05-12T14:02:27.715Z,2235
2017-05-12T14:03:37.996Z,1650
2017-05-12T14:04:47.973Z,1120
2017-05-12T14:05:57.931Z,1255
2017-05-12T14:07:08.459Z,1720
2017-05-12T14:08:18.102Z,3225
2017-05-12T14:09:28.061Z,3880
2017-05-12T14:10:38.342Z,3685
2017-05-12T14:11:48.307Z,3580
2017-05-12T14:12:58.830Z,1885
2017-05-12T14:14:08.794Z,1295
2017-05-12T14:15:19.071Z,1680
2017-05-12T14:16:29.345Z,1925
2017-05-12T14:17:39.623Z,3200
2017-05-12T14:18:52.207Z,3075
2017-05-12T14:20:02.488Z,3025
2017-05-12T14:21:12.467Z,3175
2017-05-12T14:22:22.126Z,2830
2017-05-12T14:23:32.405Z,3145
2017-05-12T14:24:42.308Z,2880
2017-05-12T14:25:52.283Z,1240
2017-05-12T14:27:02.250Z,1425
2017-05-12T14:28:12.537Z,1330
2017-05-12T14:29:22.818Z,2180
2017-05-12T14:30:33.089Z,1810
2017-05-12T14:31:43.074Z,3445
2017-05-12T14:32:53.030Z,2650
2017-05-12T14:34:03.306Z,3435
2017-05-12T14:35:13.583Z,3560
2017-05-12T14:36:23.800Z,2790
2017-05-12T14:37:34.079Z,3370
2017-05-12T14:38:44.051Z,3275
2017-05-12T14:39:53.708Z,3350
2017-05-12T14:41:03.987Z,3325
2017-05-12T14:42:14.314Z,3305
2017-05-12T14:43:24.596Z,3335
2017-05-12T14:44:34.879Z,3395
2017-05-12T14:45:45.163Z,3565
2017-05-12T14:46:55.443Z,3365
2017-05-12T14:48:05.347Z,3460
2017-05-12T14:49:15.316Z,3285
2017-05-12T14:50:25.594Z,3285
2017-05-12T14:51:35.560Z,3375
2017-05-12T14:52:45.854Z,3170
2017-05-12T14:53:56.438Z,1415
2017-05-12T14:55:06.726Z,1585
2017-05-12T14:56:16.693Z,1255
2017-05-12T14:57:26.975Z,990
2017-05-12T14:58:36.947Z,3395
2017-05-12T14:59:47.117Z,1195
2017-05-12T15:00:57.403Z,1050
2017-05-12T15:02:07.062Z,890
2017-05-12T15:03:17.339Z,815
2017-05-12T15:04:27.309Z,815
2017-05-12T15:05:37.890Z,1035
2017-05-12T15:06:47.860Z,1145
2017-05-12T15:07:58.176Z,1655
2017-05-12T15:09:08.470Z,865
2017-05-12T15:10:18.123Z,745
2017-05-12T15:11:28.659Z,795
2017-05-12T15:12:38.942Z,735
2017-05-12T15:13:49.223Z,715
2017-05-12T15:14:59.502Z,735
2017-05-12T15:16:09.782Z,745
2017-05-12T15:17:20.094Z,785
2017-05-12T15:18:30.057Z,765
2017-05-12T15:19:40.339Z,2135
2017-05-12T15:20:50.303Z,765
2017-05-12T15:22:00.582Z,755
2017-05-12T15:23:11.158Z,775
2017-05-12T15:24:21.435Z,695
2017-05-12T15:25:31.713Z,705
2017-05-12T15:26:41.674Z,730
2017-05-12T15:27:51.645Z,765
2017-05-12T15:29:02.172Z,840
2017-05-12T15:30:12.135Z,1185
2017-05-12T15:31:22.111Z,1195
2017-05-12T15:32:32.379Z,1525
2017-05-12T15:33:42.655Z,835
2017-05-12T15:34:53.188Z,1625
2017-05-12T15:36:03.157Z,1095
2017-05-12T15:37:13.431Z,1515
2017-05-12T15:38:23.707Z,1025
2017-05-12T15:39:33.982Z,2440
2017-05-12T15:40:44.246Z,930
2017-05-12T15:41:54.518Z,765
2017-05-12T15:43:04.809Z,720
2017-05-12T15:44:15.090Z,715
2017-05-12T15:45:25.368Z,725
2017-05-12T15:46:35.529Z,755
2017-05-12T15:47:45.508Z,765
2017-05-12T15:48:55.466Z,790
2017-05-12T15:50:05.421Z,770
2017-05-12T15:51:15.703Z,770
2017-05-12T15:52:28.292Z,745
2017-05-12T15:53:38.565Z,735
2017-05-12T15:54:48.840Z,735
2017-05-12T15:55:59.109Z,730
2017-05-12T15:57:09.392Z,730
2017-05-12T15:58:19.600Z,745
2017-05-12T15:59:29.873Z,970
2017-05-12T16:00:40.144Z,1085
2017-05-12T16:01:50.414Z,1020
2017-05-12T16:03:00.374Z,1020
2017-05-12T16:04:10.949Z,890
2017-05-12T16:05:20.907Z,940
2017-05-12T16:06:31.180Z,860
2017-05-12T16:07:41.453Z,750
2017-05-12T16:08:51.729Z,670
2017-05-12T16:10:02.261Z,650
2017-05-12T16:11:12.534Z,585
2017-05-12T16:12:22.805Z,670
2017-05-12T16:13:32.762Z,950
2017-05-12T16:14:43.033Z,855
2017-05-12T16:15:53.618Z,650